createdAt,value
2019-01-18T00:07:33.784Z,5.40
2019-01-18T00:12:38.019Z,5.07
2019-01-18T00:17:42.252Z,4.63
2019-01-18T00:23:05.540Z,4.73
2019-01-18T00:28:28.830Z,4.80
2019-01-18T00:33:33.285Z,4.17
2019-01-18T00:38:37.506Z,5.13
2019-01-18T00:44:00.818Z,4.80
2019-01-18T00:54:14.727Z,3.80
2019-01-18T00:59:25.754Z,3.83
2019-01-18T01:04:49.055Z,3.77
2019-01-18T01:09:53.358Z,3.77
2019-01-18T01:14:57.590Z,4.33
2019-01-18T01:20:01.964Z,4.00
2019-01-18T01:25:45.730Z,4.20
2019-01-18T01:41:09.214Z,4.07
2019-01-18T01:46:32.559Z,4.00
2019-01-18T01:51:55.811Z,3.60
2019-01-18T01:57:11.410Z,3.00
2019-01-18T02:02:15.649Z,3.53
2019-01-18T02:12:48.806Z,4.77
2019-01-18T02:23:22.932Z,4.13
2019-01-18T02:29:06.521Z,4.77
2019-01-18T02:39:20.400Z,5.43
2019-01-18T02:44:24.663Z,5.70
2019-01-18T02:49:28.894Z,5.33
2019-01-18T02:54:33.137Z,5.63
2019-01-18T02:59:37.417Z,6.07
2019-01-18T03:16:54.649Z,4.60
2019-01-18T03:21:58.893Z,5.97
2019-01-18T03:27:22.434Z,5.40
2019-01-18T03:37:36.682Z,4.67
2019-01-18T03:43:20.276Z,6.10
2019-01-18T03:48:24.504Z,5.50
2019-01-18T03:53:28.729Z,5.20
2019-01-18T03:58:32.948Z,4.33
2019-01-18T04:03:48.875Z,4.87
2019-01-18T04:09:05.259Z,5.07
2019-01-18T04:19:40.084Z,5.10
2019-01-18T04:24:44.315Z,4.60
2019-01-18T04:35:39.002Z,5.03
2019-01-18T04:45:53.109Z,5.73
2019-01-18T04:51:16.416Z,6.10
2019-01-18T04:56:20.994Z,6.30
2019-01-18T05:01:25.229Z,6.57
2019-01-18T05:17:08.409Z,6.40
2019-01-18T05:22:31.649Z,6.30
2019-01-18T05:32:45.745Z,6.30
2019-01-18T05:37:49.988Z,8.23
2019-01-18T05:48:23.052Z,7.97
2019-01-18T05:58:42.808Z,8.30
2019-01-18T06:03:47.416Z,9.00
2019-01-18T06:08:51.693Z,13.27
2019-01-18T06:13:56.197Z,13.93
2019-01-18T06:24:10.644Z,11.07
2019-01-18T06:29:14.980Z,12.13
2019-01-18T06:34:19.260Z,12.17
2019-01-18T06:39:23.557Z,13.30
2019-01-18T06:44:27.831Z,15.33
2019-01-18T06:49:32.294Z,12.30
2019-01-18T06:54:36.728Z,14.83
2019-01-18T06:59:41.187Z,13.27
2019-01-18T07:05:04.804Z,14.33
2019-01-18T07:10:21.454Z,11.93
2019-01-18T07:20:54.196Z,17.30
2019-01-18T07:25:58.714Z,14.77
2019-01-18T07:31:03.001Z,13.43
2019-01-18T07:41:36.066Z,12.00
2019-01-18T07:52:27.987Z,11.30
2019-01-18T07:57:32.226Z,13.90
2019-01-18T08:02:36.834Z,16.30
2019-01-18T08:07:41.123Z,14.00
2019-01-18T08:12:57.065Z,12.40
2019-01-18T08:18:01.310Z,16.47
2019-01-18T08:23:45.687Z,14.03
2019-01-18T08:28:51.669Z,12.90
2019-01-18T08:33:55.981Z,12.00
2019-01-18T08:39:00.214Z,11.00
2019-01-18T08:44:04.621Z,15.53
2019-01-18T08:49:08.937Z,12.53
2019-01-18T08:54:13.196Z,14.97
2019-01-18T08:59:17.582Z,14.27
2019-01-18T09:04:22.073Z,14.30
2019-01-18T09:09:26.629Z,11.27
2019-01-18T09:14:31.022Z,12.03
2019-01-18T09:19:35.340Z,12.77
2019-01-18T09:24:39.832Z,11.13
2019-01-18T09:29:44.150Z,10.53
2019-01-18T09:34:48.461Z,11.50
2019-01-18T09:39:53.316Z,10.20
2019-01-18T09:44:57.531Z,11.23
2019-01-18T09:50:02.089Z,12.40
2019-01-18T09:55:06.813Z,10.77
2019-01-18T10:00:17.469Z,10.93
2019-01-18T10:05:22.310Z,10.33
2019-01-18T10:10:26.953Z,12.03
2019-01-18T10:15:33.919Z,11.10
2019-01-18T10:20:38.370Z,10.50
2019-01-18T10:25:44.820Z,10.20
2019-01-18T10:30:49.121Z,8.00
2019-01-18T10:35:53.431Z,9.93
2019-01-18T10:40:57.757Z,7.73
2019-01-18T10:46:02.024Z,7.70
2019-01-18T10:51:06.364Z,8.70
2019-01-18T10:56:10.672Z,6.97
2019-01-18T11:01:15.002Z,6.33
2019-01-18T11:06:19.227Z,5.93
2019-01-18T11:11:23.598Z,6.10
2019-01-18T11:16:27.945Z,6.53
2019-01-18T11:21:32.416Z,6.47
2019-01-18T11:26:36.641Z,6.37
2019-01-18T11:31:40.937Z,5.70
2019-01-18T11:36:45.429Z,5.83
2019-01-18T11:41:49.646Z,5.13
2019-01-18T11:46:53.921Z,5.20
2019-01-18T11:51:58.164Z,5.00
2019-01-18T11:57:02.486Z,5.23
2019-01-18T12:02:06.804Z,6.10
2019-01-18T12:07:11.139Z,5.03
2019-01-18T12:12:15.360Z,4.90
2019-01-18T12:17:19.638Z,8.00
2019-01-18T12:22:23.887Z,5.30
2019-01-18T12:27:28.243Z,23.07
2019-01-18T12:32:32.564Z,3.37
2019-01-18T12:37:36.785Z,3.77
2019-01-18T12:42:41.006Z,4.23
2019-01-18T12:47:45.597Z,3.43
2019-01-18T12:52:49.822Z,3.90
2019-01-18T12:57:54.082Z,4.27
2019-01-18T13:02:58.451Z,4.23
2019-01-18T13:08:02.837Z,4.10
2019-01-18T13:13:07.181Z,3.70
2019-01-18T13:18:11.812Z,3.77
2019-01-18T13:23:16.131Z,4.13
2019-01-18T13:28:21.397Z,4.70
2019-01-18T13:33:25.649Z,4.40
2019-01-18T13:38:29.874Z,5.00
2019-01-18T13:43:34.286Z,4.67
2019-01-18T13:59:56.889Z,4.50
2019-01-18T14:05:20.189Z,4.43
2019-01-18T14:11:05.066Z,3.57
2019-01-18T14:26:49.877Z,4.00
2019-01-18T14:32:33.517Z,4.40
2019-01-18T14:43:05.303Z,4.03
2019-01-18T14:48:28.550Z,4.27
2019-01-18T14:53:32.780Z,3.93
2019-01-18T14:58:37.025Z,9.80
2019-01-18T15:14:00.935Z,4.30
2019-01-18T15:19:44.544Z,9.93
2019-01-18T15:25:00.220Z,4.30
2019-01-18T15:35:53.580Z,4.90
2019-01-18T15:41:37.266Z,7.17
2019-01-18T15:47:00.969Z,22.87
2019-01-18T15:52:44.573Z,15.27
2019-01-18T16:03:37.611Z,11.97
2019-01-18T16:14:10.910Z,5.67
2019-01-18T16:24:24.740Z,6.60
2019-01-18T16:29:40.442Z,8.60
2019-01-18T16:39:54.991Z,10.57
2019-01-18T16:55:38.519Z,16.83
2019-01-18T17:01:22.993Z,17.73
2019-01-18T17:06:46.345Z,10.27
2019-01-18T17:12:10.116Z,14.63
2019-01-18T17:17:14.362Z,11.37
2019-01-18T17:33:18.183Z,6.97
2019-01-18T17:39:00.900Z,8.13
2019-01-18T17:44:43.217Z,8.10
2019-01-18T17:56:23.673Z,8.53
2019-01-18T18:02:06.984Z,8.70
2019-01-18T18:07:50.218Z,8.53
2019-01-18T18:13:32.777Z,9.73
2019-01-18T18:19:15.166Z,9.17
2019-01-18T18:24:57.485Z,10.80
2019-01-18T18:36:08.137Z,24.77
2019-01-18T18:41:50.463Z,20.20
2019-01-18T18:47:32.747Z,18.20
2019-01-18T18:53:15.034Z,12.57
2019-01-18T18:58:57.487Z,13.13
2019-01-18T19:04:39.770Z,15.20
2019-01-18T19:10:08.692Z,13.10
2019-01-18T19:21:33.274Z,13.37
2019-01-18T19:27:15.853Z,12.43
2019-01-18T19:32:58.487Z,13.80
2019-01-18T19:38:41.067Z,16.40
2019-01-18T19:44:23.365Z,18.33
2019-01-18T19:50:05.661Z,17.40
2019-01-18T20:01:44.117Z,14.07
2019-01-18T20:07:26.402Z,13.33
2019-01-18T20:13:08.684Z,13.40
2019-01-18T20:24:44.609Z,11.63
2019-01-18T20:30:26.887Z,11.50
2019-01-18T20:36:09.172Z,13.07
2019-01-18T20:41:51.752Z,14.63
2019-01-18T20:47:34.298Z,15.03
2019-01-18T20:53:16.586Z,15.00
2019-01-18T20:58:58.971Z,15.33
2019-01-18T21:04:56.207Z,14.73
2019-01-18T21:10:38.616Z,12.73
2019-01-18T21:16:20.940Z,14.77
2019-01-18T21:22:03.310Z,15.13
2019-01-18T21:27:46.212Z,15.70
2019-01-18T21:33:28.663Z,15.90
2019-01-18T21:39:10.944Z,17.47
2019-01-18T21:44:54.326Z,15.70
2019-01-18T21:50:44.116Z,14.43
2019-01-18T21:56:26.396Z,14.17
2019-01-18T22:02:08.700Z,12.90
2019-01-18T22:07:59.816Z,11.63
2019-01-18T22:13:42.102Z,11.77
2019-01-18T22:19:24.397Z,11.93
2019-01-18T22:31:07.835Z,24.60
2019-01-18T22:36:50.121Z,21.37
2019-01-18T22:42:32.399Z,19.57
2019-01-18T22:47:48.444Z,17.17
2019-01-18T22:53:31.167Z,15.93
2019-01-18T22:59:13.790Z,17.53
2019-01-18T23:04:45.187Z,16.33
2019-01-18T23:10:33.179Z,16.57
2019-01-18T23:16:15.529Z,16.60
2019-01-18T23:21:58.071Z,18.03
2019-01-18T23:27:45.773Z,15.03
2019-01-18T23:39:24.897Z,15.13
2019-01-18T23:51:15.760Z,14.63
